Relevés horaires Beauvechain (Belgique)


Relevés horaires à Beauvechain - Lundi 16 Juill. 2018
Heure UTC1 Température [°C] Vent [km/h] Hum. [%] Pres.4 [hPa] Visi. [Km] Nébu. [octa] Préc.5 [mm] Cond.
2m. Res. Ros. Dir.2 Vit. Moy. Raf.3
23:00 18.7 18.7 12.7 OSO 3.7 -- 5.6 68 1014.1(0.8/3h) 20 -- -- --
22:00 20.0 20.0 13.1 NNO 1.9 -- 3.7 64 1013.7(0.7/3h) 20 -- -- NA
21:00 21.0 21.0 12.5 NNO 1.9 -- 14.8 58 1013.3(0.6/3h) 20 -- -- Il y a de la pluie faible et continue à la station au moment de l'observation
20:00 20.3 20.3 12.9 NNO 3.7 -- 13.0 62 1013.2(1.3/3h) 20 -- -- Il y a de la pluie faible et continue à la station au moment de l'observation
19:00 22.2 22.2 11.5 NNO 5.6 -- 14.8 51 1012.7(1.2/3h) 20 -- -- --
18:00 22.3 22.3 12.7 ONO 9.3 -- 18.5 55 1012.7(0.7/3h) 20 -- -- --
17:00 28.2 28.2 5.7 ENE 3.7 -- 11.1 24 1011.5(-0.6/3h) 20 -- -- --
16:00 28.5 28.5 6.7 NE 5.6 -- 9.3 25 1011.3(-1.2/3h) 20 3/8 -- --
15:00 28.7 28.7 6.4 ENE 5.6 -- 11.1 24 1011.7(-1.3/3h) 20 4/8 -- --
14:00 28.6 28.6 7.3 ENE 3.7 -- 11.1 26 1012.1(-1.1/3h) 20 5/8 -- --
13:00 28.3 28.3 6.4 E 3.7 -- 11.1 25 1012.7(-0.8/3h) 20 5/8 -- --
12:00 28.3 28.3 6.3 N 3.7 -- 11.1 25 1013(-0.5/3h) 20 5/8 -- --
11:00 27.1 27.1 6.8 E 3.7 -- 9.3 28 1013.2(-0.2/3h) 20 5/8 -- --
10:00 27.1 27.1 7.6 ENE 3.7 -- 11.1 29 1013.6(-0.3/3h) 20 3/8 -- --
09:00 26.3 26.3 7.9 ENE 5.6 -- 9.3 31 1013.7(-0.1/3h) 20 3/8 -- --
08:00 25.3 25.3 9.1 E 3.7 -- 5.6 36 1013.7(-0.2/3h) 20 2/8 -- --
07:00 23.3 23.3 10.7 NNO 1.9 -- 3.7 45 1014.1(0.1/3h) 15 2/8 -- --
06:00 20.2 20.2 11.1 NNO 1.9 -- 3.7 56 1014.1(0.0/3h) 15 1/8 -- --
05:00 18.3 18.3 8.8 NNO 1.9 -- 3.7 54 1014.2(0.0/3h) 15 1/8 -- --
04:00 16.9 16.9 8.4 NNO 1.9 -- 3.7 57 1014.2(-0.3/3h) 15 1/8 -- --
03:00 17.3 17.3 8.2 NNO 1.9 -- 1.9 55 1014.2(-0.8/3h) 20 -- -- --
02:00 18.8 18.8 8.0 NNO 1.9 -- 1.9 49 1014.2(-0.8/3h) 20 -- -- --
01:00 19.6 19.6 8.0 NNO 1.9 -- 1.9 47 1014.5(-0.5/3h) 20 -- -- --
00:00 20.0 20.0 8.0 NNO 1.9 -- 5.6 46 1014.8(-0.1/3h) 20 -- -- --

1 Coordinated Universal Time. Actuellement il est 10:00 locale et 08:00 UTC.

2 Le vent souffle depuis la direction indiquée vers la direction oposée.

3 Les rafales max. sont disponible 40 min après l'heure du relevé.

4 Pour les stations d'altitude (plus de 600m) le géopotentiel du niveau le plus proche de la pression obligatoire est indiqué.

5 Les stations disposant d'un diffuseur peuvent indiquer "trace". Cela signifie que des précipitations ont touchés le sol mais que la quantité est inférieure à 0.1 mm.

Récapitulatif de la journée
Température [°C] Vent [km/h] Ensoleillement4 [h] Precipitations totale5 [mm] Pression [Hpa]
Min1 Max.2 Moy.3 Max. Min Max.
16.7 29.5 0 18.5 0 h 0 min 0 1011.3 1014.8

1 Température minimale relevée entre 18:00 UTC la veille et 18:00 UTC le jour donné.

2 Température maximale relevée entre 06:00 UTC le jour donné et 06:00 UTC le lendemain.

3 Vent moyen de la journée basé sur les relevés horaires.

4 Ensoleillement en heures relevé entre 06:00 UTC la veille et 06:00 UTC le jour donné.

5 Précipitations totales tombées entre 06:00 UTC la jour donné et 06:00 UTC le lendemain.

Graphiques horaires